Time;durP1;ratioP1;P1;durP2;ratioP2;P2;SDS_P1;SDS_P2;PMS_P1;PMS_P2;Temp;Humidity;BMP_temperature;BMP_pressure;BME280_temperature;BME280_humidity;BME280_pressure;Samples;Min_cycle;Max_cycle;Signal;HPM_P1;HPM_P2
2022/01/01 00:01:34;;;;;;;13.50;6.13;;;21.00;91.20;;;;;;4171392;28;20041;-65
2022/01/01 00:03:39;;;;;;;12.45;6.25;;;20.90;91.20;;;;;;4174460;28;20116;-66
2022/01/01 00:05:44;;;;;;;16.33;6.18;;;21.00;91.20;;;;;;4170190;28;20500;-66
2022/01/01 00:07:48;;;;;;;9.75;6.07;;;20.90;91.40;;;;;;4171436;28;20045;-65
2022/01/01 00:09:52;;;;;;;10.18;6.15;;;20.80;91.30;;;;;;4171157;28;20044;-65
2022/01/01 00:11:58;;;;;;;10.40;6.30;;;20.90;91.40;;;;;;4171472;28;20077;-65
2022/01/01 00:14:07;;;;;;;15.63;9.07;;;20.90;91.40;;;;;;4179279;28;20060;-65
2022/01/01 00:16:12;;;;;;;13.63;8.80;;;20.90;91.50;;;;;;4176390;28;20098;-65
2022/01/01 00:18:17;;;;;;;12.32;8.90;;;21.00;91.40;;;;;;4179702;28;20045;-65
2022/01/01 00:20:21;;;;;;;15.63;8.10;;;20.90;91.60;;;;;;4179689;28;20060;-64
2022/01/01 00:22:25;;;;;;;15.35;7.70;;;20.70;91.80;;;;;;4179753;28;20048;-64
2022/01/01 00:24:30;;;;;;;14.63;8.02;;;20.70;92.20;;;;;;4179068;28;20037;-65
2022/01/01 00:26:34;;;;;;;13.13;9.63;;;20.70;92.10;;;;;;4179120;28;20068;-66
2022/01/01 00:28:39;;;;;;;12.95;8.45;;;20.70;92.10;;;;;;4179710;28;20088;-66
2022/01/01 00:30:43;;;;;;;9.73;7.40;;;20.70;92.10;;;;;;4179863;28;20131;-64
2022/01/01 00:32:49;;;;;;;11.57;7.95;;;20.80;92.10;;;;;;4180135;28;20450;-66
2022/01/01 00:34:54;;;;;;;14.57;8.18;;;20.90;92.00;;;;;;4178801;28;20044;-66
2022/01/01 00:36:58;;;;;;;15.38;8.27;;;21.00;91.70;;;;;;4180015;28;20094;-66
2022/01/01 00:39:03;;;;;;;14.50;8.82;;;21.00;91.80;;;;;;4178407;28;20049;-66
2022/01/01 00:41:13;;;;;;;12.75;9.43;;;21.10;91.50;;;;;;4179376;28;20522;-66
2022/01/01 00:43:18;;;;;;;19.65;10.82;;;21.10;91.60;;;;;;4170235;28;20053;-66
2022/01/01 00:45:23;;;;;;;19.15;9.82;;;21.00;91.70;;;;;;4166818;28;20135;-66
2022/01/01 00:47:27;;;;;;;17.58;10.40;;;21.00;91.80;;;;;;4179533;28;20039;-66
2022/01/01 00:49:32;;;;;;;16.10;9.95;;;21.10;91.60;;;;;;4179562;28;20063;-66
2022/01/01 00:51:36;;;;;;;18.95;10.45;;;21.00;91.70;;;;;;4179646;28;20041;-66
2022/01/01 00:53:40;;;;;;;13.38;9.35;;;20.90;91.80;;;;;;4194718;28;20060;-66
2022/01/01 00:55:45;;;;;;;17.35;8.38;;;21.00;91.90;;;;;;4177668;28;20049;-66
2022/01/01 00:57:50;;;;;;;13.30;7.85;;;21.00;91.80;;;;;;4179406;28;20135;-66
2022/01/01 00:59:54;;;;;;;13.07;8.02;;;21.20;91.60;;;;;;4179144;28;20458;-66
2022/01/01 01:01:59;;;;;;;11.98;7.28;;;21.20;91.50;;;;;;4174814;28;20040;-66
2022/01/01 01:04:04;;;;;;;12.88;7.60;;;21.20;91.50;;;;;;4171124;28;20037;-66
2022/01/01 01:06:10;;;;;;;14.55;8.20;;;21.30;91.50;;;;;;4174836;28;20068;-66
2022/01/01 01:08:16;;;;;;;11.05;7.70;;;21.30;91.30;;;;;;4179593;28;20069;-66
2022/01/01 01:10:21;;;;;;;12.90;8.38;;;21.40;91.10;;;;;;4179154;28;20056;-66
2022/01/01 01:12:35;;;;;;;12.88;8.50;;;21.40;91.50;;;;;;4176996;28;20057;-64
2022/01/01 01:14:41;;;;;;;17.02;7.93;;;21.50;91.30;;;;;;4164943;28;20046;-62
2022/01/01 01:16:46;;;;;;;13.50;8.25;;;21.40;91.20;;;;;;4170830;28;20140;-64
2022/01/01 01:18:53;;;;;;;11.35;7.35;;;21.50;91.20;;;;;;4174687;28;20048;-64
2022/01/01 01:21:12;;;;;;;14.40;8.30;;;21.70;91.00;;;;;;4173431;28;20438;-65
2022/01/01 01:23:16;;;;;;;13.68;8.25;;;21.80;90.60;;;;;;4168860;28;20127;-64
2022/01/01 01:25:22;;;;;;;14.50;8.40;;;21.80;90.60;;;;;;4171088;28;20041;-65
2022/01/01 01:27:28;;;;;;;15.15;8.45;;;21.90;90.60;;;;;;4169336;28;20060;-65
2022/01/01 01:29:43;;;;;;;13.60;7.60;;;21.90;90.60;;;;;;4172120;28;20049;-65
2022/01/01 01:31:51;;;;;;;10.13;6.05;;;21.90;90.30;;;;;;4172252;28;20098;-65
2022/01/01 01:34:08;;;;;;;9.23;6.07;;;21.90;90.40;;;;;;4171457;28;20045;-64
2022/01/01 01:36:26;;;;;;;8.68;5.30;;;22.00;90.30;;;;;;4171227;28;20514;-65
2022/01/01 01:38:36;;;;;;;9.25;6.05;;;22.00;90.30;;;;;;4168252;28;20053;-64
2022/01/01 01:40:40;;;;;;;9.82;5.50;;;22.10;90.20;;;;;;4170320;28;20049;-65
2022/01/01 01:42:45;;;;;;;10.13;5.53;;;22.20;90.00;;;;;;4171006;28;20499;-65
2022/01/01 01:44:53;;;;;;;8.98;5.65;;;22.20;90.00;;;;;;4170359;28;20037;-66
2022/01/01 01:47:00;;;;;;;9.52;5.47;;;22.20;89.80;;;;;;4170233;28;20140;-65
2022/01/01 01:49:04;;;;;;;9.65;5.47;;;22.20;89.80;;;;;;4174308;28;20578;-64
2022/01/01 01:51:09;;;;;;;8.07;5.60;;;22.20;89.60;;;;;;4174399;28;20037;-64
2022/01/01 01:53:14;;;;;;;10.40;5.80;;;22.30;89.60;;;;;;4185385;28;20380;-64
2022/01/01 01:55:21;;;;;;;11.57;6.20;;;22.40;89.20;;;;;;4170047;28;20045;-64
2022/01/01 01:57:25;;;;;;;8.57;5.72;;;22.40;89.50;;;;;;4170108;28;20128;-64
2022/01/01 01:59:30;;;;;;;8.70;5.65;;;22.50;89.60;;;;;;4173531;28;20051;-63
2022/01/01 02:01:34;;;;;;;10.80;5.53;;;22.60;89.80;;;;;;4170045;28;20038;-64
2022/01/01 02:03:39;;;;;;;9.43;5.30;;;22.70;88.60;;;;;;4171788;28;20467;-64
2022/01/01 02:05:46;;;;;;;11.52;4.68;;;22.70;88.00;;;;;;4170819;28;20048;-65
2022/01/01 02:07:51;;;;;;;10.40;4.97;;;22.80;86.70;;;;;;4172107;28;20061;-62
2022/01/01 02:09:55;;;;;;;8.10;4.97;;;22.80;86.40;;;;;;4174141;28;20146;-62
2022/01/01 02:12:01;;;;;;;12.20;4.20;;;23.00;86.70;;;;;;4165817;28;20053;-62
2022/01/01 02:14:22;;;;;;;10.32;4.45;;;23.00;85.60;;;;;;4166547;28;20073;-63
2022/01/01 02:16:36;;;;;;;8.95;4.57;;;23.00;85.70;;;;;;4170665;28;20048;-64
2022/01/01 02:18:43;;;;;;;6.97;4.22;;;23.10;85.30;;;;;;4173292;28;20053;-64
2022/01/01 02:20:51;;;;;;;7.95;4.00;;;23.20;84.80;;;;;;4171456;28;20049;-64
2022/01/01 02:23:01;;;;;;;6.35;3.90;;;23.20;84.80;;;;;;4172455;28;20056;-62
2022/01/01 02:25:06;;;;;;;5.40;3.70;;;23.20;84.80;;;;;;4165540;28;20426;-65
2022/01/01 02:27:11;;;;;;;8.07;4.25;;;23.30;84.50;;;;;;4169630;28;20116;-64
2022/01/01 02:29:15;;;;;;;62.28;7.30;;;23.30;84.80;;;;;;4169808;28;20053;-63
2022/01/01 02:31:20;;;;;;;8.00;3.80;;;23.40;84.50;;;;;;4167654;28;20399;-66
2022/01/01 02:33:24;;;;;;;8.70;3.80;;;23.50;84.10;;;;;;4173975;28;20072;-64
2022/01/01 02:35:28;;;;;;;7.47;3.95;;;23.50;84.00;;;;;;4169762;28;20049;-65
2022/01/01 02:37:34;;;;;;;14.73;5.43;;;23.50;83.70;;;;;;4170228;28;20049;-63
2022/01/01 02:39:39;;;;;;;6.90;4.68;;;23.50;83.80;;;;;;4170119;28;20053;-64
2022/01/01 02:41:44;;;;;;;10.95;4.88;;;23.60;83.80;;;;;;4167825;28;20108;-64
2022/01/01 02:43:49;;;;;;;9.32;4.20;;;23.70;83.70;;;;;;4170973;28;20042;-64
2022/01/01 02:45:54;;;;;;;6.28;4.00;;;23.70;83.10;;;;;;4169882;28;20550;-64
2022/01/01 02:47:58;;;;;;;6.07;4.15;;;23.70;83.10;;;;;;4170248;28;20038;-65
2022/01/01 02:50:02;;;;;;;10.95;4.60;;;23.80;83.40;;;;;;4175171;28;20111;-64
2022/01/01 02:52:07;;;;;;;7.95;4.70;;;23.80;83.10;;;;;;4173743;28;20099;-63
2022/01/01 02:54:11;;;;;;;9.27;4.10;;;23.90;82.90;;;;;;4173518;28;20511;-64
2022/01/01 02:56:16;;;;;;;8.63;5.22;;;23.80;82.40;;;;;;4178828;28;20430;-63
2022/01/01 02:58:20;;;;;;;11.45;4.55;;;23.90;82.60;;;;;;4175440;28;20045;-63
2022/01/01 03:00:25;;;;;;;9.13;4.22;;;23.90;82.60;;;;;;4187478;28;20041;-64
2022/01/01 03:02:30;;;;;;;6.72;4.35;;;24.00;82.10;;;;;;4170047;28;20101;-63
2022/01/01 03:04:35;;;;;;;8.77;4.00;;;24.00;82.30;;;;;;4174316;28;20053;-64
2022/01/01 03:06:41;;;;;;;7.78;4.40;;;24.00;82.20;;;;;;4174035;28;20033;-62
2022/01/01 03:08:48;;;;;;;11.13;4.45;;;24.00;82.10;;;;;;4169133;28;20111;-64
2022/01/01 03:10:53;;;;;;;6.05;3.55;;;24.10;81.90;;;;;;4172769;28;20037;-62
2022/01/01 03:12:58;;;;;;;6.75;3.80;;;24.00;81.80;;;;;;4167533;28;20079;-63
2022/01/01 03:15:02;;;;;;;8.60;3.97;;;24.10;81.50;;;;;;4166642;28;20076;-63
2022/01/01 03:17:07;;;;;;;8.52;4.25;;;24.10;82.10;;;;;;4170035;28;20136;-62
2022/01/01 03:19:12;;;;;;;12.93;4.10;;;24.20;82.10;;;;;;4170138;28;20110;-63
2022/01/01 03:21:17;;;;;;;8.68;3.97;;;24.20;81.70;;;;;;4172799;28;20132;-62
2022/01/01 03:23:21;;;;;;;6.32;4.32;;;24.20;81.60;;;;;;4175578;28;20056;-63
2022/01/01 03:25:26;;;;;;;9.98;4.43;;;24.40;81.70;;;;;;4173248;28;20041;-63
2022/01/01 03:27:33;;;;;;;5.80;4.45;;;24.40;81.00;;;;;;4173595;28;20060;-63
2022/01/01 03:29:38;;;;;;;9.30;4.65;;;24.40;81.10;;;;;;4170346;28;20135;-64
2022/01/01 03:31:42;;;;;;;9.75;4.35;;;24.40;81.10;;;;;;4175307;28;20073;-63
2022/01/01 03:33:46;;;;;;;13.25;4.40;;;24.40;81.00;;;;;;4170416;28;20095;-63
2022/01/01 03:35:51;;;;;;;9.57;4.47;;;24.50;81.10;;;;;;4170340;28;20052;-63
2022/01/01 03:37:55;;;;;;;10.88;4.57;;;24.50;80.00;;;;;;4169288;28;20032;-63
2022/01/01 03:39:59;;;;;;;10.75;4.28;;;24.60;79.80;;;;;;4171452;28;20060;-65
2022/01/01 03:42:04;;;;;;;7.82;4.10;;;24.60;80.20;;;;;;4170169;28;20099;-63
2022/01/01 03:44:08;;;;;;;8.90;3.97;;;24.60;80.40;;;;;;4169984;28;20044;-64
2022/01/01 03:46:13;;;;;;;5.43;3.72;;;24.60;80.20;;;;;;4171940;28;20423;-63
2022/01/01 03:48:17;;;;;;;5.85;4.20;;;24.60;80.90;;;;;;4168321;28;20309;-63
2022/01/01 03:50:21;;;;;;;6.30;4.13;;;24.70;80.10;;;;;;4160692;28;20103;-62
2022/01/01 03:52:27;;;;;;;9.68;3.80;;;24.80;80.40;;;;;;4167746;28;20115;-63
2022/01/01 03:54:32;;;;;;;11.80;4.50;;;24.80;80.20;;;;;;4177307;28;20049;-63
2022/01/01 03:56:38;;;;;;;8.32;4.00;;;25.00;80.40;;;;;;4176448;28;20057;-64
2022/01/01 03:58:42;;;;;;;7.93;4.00;;;25.00;79.80;;;;;;4177570;28;20051;-64
2022/01/01 04:00:46;;;;;;;11.68;4.20;;;25.00;79.20;;;;;;4171109;28;20087;-64
2022/01/01 04:02:51;;;;;;;7.15;3.85;;;25.00;79.50;;;;;;4172147;28;20045;-62
2022/01/01 04:04:56;;;;;;;8.05;4.32;;;25.10;79.20;;;;;;4177516;28;20396;-64
2022/01/01 04:07:02;;;;;;;10.32;5.35;;;25.20;79.30;;;;;;4177339;28;20495;-64
2022/01/01 04:09:06;;;;;;;11.13;4.13;;;25.20;79.50;;;;;;4177416;28;20404;-64
2022/01/01 04:11:11;;;;;;;9.48;4.55;;;25.20;78.50;;;;;;4176790;28;20571;-64
2022/01/01 04:13:15;;;;;;;6.82;3.90;;;25.30;79.00;;;;;;4167948;28;20657;-64
2022/01/01 04:15:19;;;;;;;6.72;3.60;;;25.40;78.60;;;;;;4174281;28;20068;-63
2022/01/01 04:17:24;;;;;;;7.95;4.18;;;25.40;78.80;;;;;;4175531;28;20052;-64
2022/01/01 04:19:39;;;;;;;11.32;4.03;;;25.40;78.40;;;;;;4174553;28;20136;-64
2022/01/01 04:21:43;;;;;;;8.45;3.80;;;25.40;78.40;;;;;;4176822;28;20056;-63
2022/01/01 04:23:47;;;;;;;9.73;3.90;;;25.40;78.50;;;;;;4176962;28;20106;-62
2022/01/01 04:25:52;;;;;;;10.70;4.25;;;25.50;78.00;;;;;;4176398;28;20522;-63
2022/01/01 04:27:56;;;;;;;8.02;4.50;;;25.60;78.20;;;;;;4176488;28;20060;-64
2022/01/01 04:30:01;;;;;;;7.97;4.43;;;25.60;77.60;;;;;;4177126;28;20059;-64
2022/01/01 04:32:06;;;;;;;6.70;3.90;;;25.80;77.70;;;;;;4176281;28;20098;-64
2022/01/01 04:34:10;;;;;;;6.45;4.43;;;25.80;76.80;;;;;;4175611;28;20288;-64
2022/01/01 04:36:15;;;;;;;7.65;4.05;;;25.80;77.20;;;;;;4176137;28;20041;-64
2022/01/01 04:38:35;;;;;;;7.32;3.80;;;25.70;77.20;;;;;;4177783;28;20170;-64
2022/01/01 04:40:40;;;;;;;9.35;3.83;;;25.70;77.60;;;;;;4178138;28;20049;-63
2022/01/01 04:42:45;;;;;;;8.30;4.00;;;25.80;77.80;;;;;;4172854;28;20045;-63
2022/01/01 04:44:49;;;;;;;7.70;3.90;;;25.80;77.20;;;;;;4176406;28;20040;-63
2022/01/01 04:46:53;;;;;;;6.85;3.75;;;25.90;77.50;;;;;;4167109;28;20316;-63
2022/01/01 04:48:57;;;;;;;7.78;4.07;;;26.00;77.60;;;;;;4163758;28;20051;-63
2022/01/01 04:51:02;;;;;;;8.10;3.72;;;26.00;77.10;;;;;;4176499;28;20049;-63
2022/01/01 04:53:07;;;;;;;6.28;3.83;;;26.10;76.70;;;;;;4174688;28;20128;-64
2022/01/01 04:55:11;;;;;;;8.23;4.50;;;26.00;76.30;;;;;;4174204;28;20719;-64
2022/01/01 04:57:15;;;;;;;7.45;4.10;;;26.10;76.50;;;;;;4168391;28;20111;-64
2022/01/01 04:59:20;;;;;;;13.18;4.30;;;26.00;76.10;;;;;;4173584;28;20384;-64
2022/01/01 05:01:24;;;;;;;7.72;3.92;;;26.10;76.50;;;;;;4170716;28;20458;-64
2022/01/01 05:03:29;;;;;;;10.75;3.90;;;26.20;76.90;;;;;;4175127;28;20072;-63
2022/01/01 05:05:34;;;;;;;9.50;4.30;;;26.20;76.30;;;;;;4172073;28;20055;-64
2022/01/01 05:07:38;;;;;;;10.68;4.72;;;26.20;75.70;;;;;;4172835;28;20462;-64
2022/01/01 05:09:43;;;;;;;5.32;4.20;;;26.30;76.00;;;;;;4173705;28;20052;-64
2022/01/01 05:11:48;;;;;;;11.23;4.38;;;26.30;76.10;;;;;;4168354;28;20072;-64
2022/01/01 05:13:54;;;;;;;3.60;3.30;;;26.30;76.10;;;;;;4171495;28;20132;-64
2022/01/01 05:15:58;;;;;;;5.88;4.15;;;26.40;76.20;;;;;;4166457;28;20614;-63
2022/01/01 05:18:02;;;;;;;7.47;4.15;;;26.40;76.00;;;;;;4173520;28;20458;-64
2022/01/01 05:20:08;;;;;;;8.68;4.13;;;26.40;75.70;;;;;;4171397;28;20053;-63
2022/01/01 05:22:12;;;;;;;7.18;4.90;;;26.50;76.20;;;;;;4173924;28;20056;-62
2022/01/01 05:24:18;;;;;;;7.13;4.68;;;26.60;76.20;;;;;;4167418;28;20232;-63
2022/01/01 05:26:23;;;;;;;8.40;5.07;;;26.60;75.70;;;;;;4172969;28;20061;-64
2022/01/01 05:28:28;;;;;;;9.15;5.47;;;26.80;75.60;;;;;;4174638;28;20045;-63
2022/01/01 05:30:32;;;;;;;7.57;4.45;;;26.80;75.40;;;;;;4171142;28;20083;-62
2022/01/01 05:32:37;;;;;;;8.90;4.53;;;26.80;75.20;;;;;;4175468;28;20064;-63
2022/01/01 05:34:42;;;;;;;9.02;4.82;;;26.70;75.10;;;;;;4175261;28;20048;-63
2022/01/01 05:36:47;;;;;;;8.48;4.57;;;26.80;75.10;;;;;;4171581;28;20041;-63
2022/01/01 05:38:53;;;;;;;12.52;5.10;;;26.80;75.20;;;;;;4175141;28;20048;-62
2022/01/01 05:40:58;;;;;;;5.97;4.45;;;26.80;75.70;;;;;;4174958;28;20072;-63
2022/01/01 05:43:02;;;;;;;7.85;4.32;;;26.90;74.60;;;;;;4171734;28;20055;-64
2022/01/01 05:45:08;;;;;;;12.85;7.80;;;26.90;74.10;;;;;;4172770;28;20530;-63
2022/01/01 05:47:13;;;;;;;9.43;5.80;;;27.00;75.40;;;;;;4174797;28;20033;-63
2022/01/01 05:49:17;;;;;;;7.70;4.68;;;27.00;74.80;;;;;;4174190;28;20048;-63
2022/01/01 05:51:22;;;;;;;14.38;4.00;;;27.00;74.50;;;;;;4174358;28;20269;-63
2022/01/01 05:53:26;;;;;;;6.55;3.28;;;27.00;74.40;;;;;;4171331;28;20080;-63
2022/01/01 05:55:31;;;;;;;8.05;4.00;;;27.00;74.60;;;;;;4173807;28;20107;-63
2022/01/01 05:57:35;;;;;;;10.88;4.22;;;27.00;74.20;;;;;;4174611;28;20111;-63
2022/01/01 05:59:41;;;;;;;7.03;4.03;;;27.10;75.40;;;;;;4172591;28;20069;-64
2022/01/01 06:01:47;;;;;;;7.25;4.00;;;27.10;74.40;;;;;;4173969;28;20102;-63
2022/01/01 06:03:52;;;;;;;7.40;4.00;;;27.10;74.20;;;;;;4173946;28;20407;-63
2022/01/01 06:05:57;;;;;;;5.95;4.00;;;27.20;74.20;;;;;;4174778;28;20048;-63
2022/01/01 06:08:11;;;;;;;8.15;4.15;;;27.20;73.90;;;;;;4172673;28;20068;-64
2022/01/01 06:10:15;;;;;;;11.35;4.22;;;27.20;73.70;;;;;;4174926;28;20446;-64
2022/01/01 06:12:20;;;;;;;8.98;3.78;;;27.20;73.50;;;;;;4172273;28;20507;-63
2022/01/01 06:14:24;;;;;;;7.32;3.92;;;27.30;74.60;;;;;;4172361;28;20086;-64
2022/01/01 06:16:29;;;;;;;9.02;3.97;;;27.30;73.70;;;;;;4174280;28;20503;-63
2022/01/01 06:18:35;;;;;;;8.35;3.92;;;27.30;73.20;;;;;;4175165;28;20048;-62
2022/01/01 06:20:42;;;;;;;6.75;3.50;;;27.40;73.60;;;;;;4175006;28;20135;-62
2022/01/01 06:22:47;;;;;;;7.07;3.50;;;27.30;73.30;;;;;;4173416;28;20063;-62
2022/01/01 06:24:51;;;;;;;12.27;6.47;;;27.30;73.70;;;;;;4176391;28;20435;-62
2022/01/01 06:26:56;;;;;;;9.45;4.00;;;27.40;74.00;;;;;;4177933;28;20045;-62
2022/01/01 06:29:01;;;;;;;7.20;4.03;;;27.40;73.30;;;;;;4177432;28;20079;-63
2022/01/01 06:31:05;;;;;;;7.60;3.78;;;27.50;73.10;;;;;;4173153;28;20057;-63
2022/01/01 06:33:15;;;;;;;8.43;5.32;;;27.50;73.00;;;;;;4176975;28;20407;-62
2022/01/01 06:35:19;;;;;;;11.77;8.15;;;27.40;73.60;;;;;;4175873;28;20045;-62
2022/01/01 06:37:24;;;;;;;12.05;7.20;;;27.50;73.30;;;;;;4177900;28;20611;-62
2022/01/01 06:39:28;;;;;;;7.93;4.47;;;27.60;73.60;;;;;;4175449;28;20053;-63
2022/01/01 06:41:33;;;;;;;7.40;3.72;;;27.60;73.20;;;;;;4173729;28;20045;-62
2022/01/01 06:43:42;;;;;;;8.30;3.58;;;27.60;72.80;;;;;;4171715;28;20056;-63
2022/01/01 06:45:47;;;;;;;6.32;3.78;;;27.60;73.00;;;;;;4172583;28;20038;-62
2022/01/01 06:47:52;;;;;;;6.70;3.80;;;27.60;73.40;;;;;;4172724;28;20099;-62
2022/01/01 06:49:56;;;;;;;9.40;4.28;;;27.60;72.40;;;;;;4173067;28;20036;-62
2022/01/01 06:52:01;;;;;;;11.77;4.60;;;27.70;72.70;;;;;;4173500;28;20559;-62
2022/01/01 06:54:05;;;;;;;7.90;3.75;;;27.70;72.30;;;;;;4172659;28;20084;-63
2022/01/01 06:56:10;;;;;;;5.95;3.97;;;27.70;72.10;;;;;;4172554;28;20080;-63
2022/01/01 06:58:15;;;;;;;8.98;3.70;;;27.70;72.10;;;;;;4170855;28;20085;-64
2022/01/01 07:00:19;;;;;;;8.20;4.20;;;27.70;72.70;;;;;;4177136;28;20045;-64
2022/01/01 07:02:24;;;;;;;7.57;4.00;;;27.70;72.60;;;;;;4175265;28;20049;-64
2022/01/01 07:04:28;;;;;;;7.38;3.75;;;27.80;72.40;;;;;;4175193;28;20112;-63
2022/01/01 07:06:34;;;;;;;6.32;4.03;;;27.70;72.60;;;;;;4170725;28;20510;-63
2022/01/01 07:08:38;;;;;;;7.63;4.25;;;27.70;72.60;;;;;;4171892;28;20068;-63
2022/01/01 07:10:44;;;;;;;6.80;3.80;;;27.70;72.50;;;;;;4174255;28;20508;-64
2022/01/01 07:12:48;;;;;;;7.20;3.90;;;27.80;72.60;;;;;;4172459;28;20069;-63
2022/01/01 07:14:52;;;;;;;8.13;3.78;;;27.80;72.60;;;;;;4172595;28;20061;-64
2022/01/01 07:16:57;;;;;;;5.57;3.47;;;27.90;71.80;;;;;;4171164;28;20132;-63
2022/01/01 07:19:02;;;;;;;7.28;3.95;;;27.80;71.90;;;;;;4171302;28;20512;-63
2022/01/01 07:21:07;;;;;;;8.95;3.55;;;27.90;72.00;;;;;;4168425;28;20067;-63
2022/01/01 07:23:11;;;;;;;7.85;3.65;;;27.90;71.00;;;;;;4166627;28;20045;-63
2022/01/01 07:25:16;;;;;;;6.82;3.80;;;27.90;71.90;;;;;;4171948;28;20106;-63
2022/01/01 07:27:21;;;;;;;7.15;4.05;;;28.00;70.90;;;;;;4168043;28;20053;-63
2022/01/01 07:29:26;;;;;;;8.18;3.80;;;27.90;71.10;;;;;;4168866;28;20155;-63
2022/01/01 07:31:31;;;;;;;9.82;3.45;;;28.00;71.20;;;;;;4173077;28;20492;-63
2022/01/01 07:33:36;;;;;;;9.23;3.50;;;28.00;70.50;;;;;;4169806;28;20080;-63
2022/01/01 07:35:40;;;;;;;11.45;3.78;;;27.90;70.60;;;;;;4167501;28;20045;-63
2022/01/01 07:37:45;;;;;;;7.00;3.80;;;28.00;71.20;;;;;;4160419;28;20056;-64
2022/01/01 07:39:49;;;;;;;7.72;4.00;;;27.90;70.90;;;;;;4183432;28;20512;-63
2022/01/01 07:41:54;;;;;;;7.82;3.38;;;27.90;71.40;;;;;;4168373;28;20570;-63
2022/01/01 07:43:58;;;;;;;9.00;4.88;;;27.90;71.30;;;;;;4167123;28;20037;-63
2022/01/01 07:46:02;;;;;;;9.73;6.15;;;28.00;71.60;;;;;;4168164;28;20389;-63
2022/01/01 07:48:07;;;;;;;8.32;4.45;;;28.00;71.60;;;;;;4167789;28;20054;-63
2022/01/01 07:50:12;;;;;;;5.50;3.92;;;28.10;71.30;;;;;;4168601;28;20045;-63
2022/01/01 07:52:16;;;;;;;8.93;3.63;;;27.90;70.50;;;;;;4169145;28;20053;-63
2022/01/01 07:54:21;;;;;;;7.55;4.10;;;27.90;71.00;;;;;;4169647;28;20496;-62
2022/01/01 07:56:26;;;;;;;9.13;3.72;;;27.90;71.50;;;;;;4167525;28;20496;-62
2022/01/01 07:58:33;;;;;;;6.68;3.70;;;27.90;71.30;;;;;;4169308;28;20052;-62
2022/01/01 08:00:37;;;;;;;5.55;3.72;;;28.00;70.80;;;;;;4169901;28;20648;-63
2022/01/01 08:02:44;;;;;;;11.35;6.28;;;28.00;71.20;;;;;;4171098;28;20053;-63
2022/01/01 08:04:48;;;;;;;7.93;5.80;;;28.10;70.60;;;;;;4167022;28;20038;-63
2022/01/01 08:06:54;;;;;;;6.25;4.45;;;28.10;71.20;;;;;;4167999;28;20053;-63
2022/01/01 08:08:59;;;;;;;8.50;4.00;;;28.00;71.50;;;;;;4167712;28;20038;-63
2022/01/01 08:11:03;;;;;;;8.48;3.95;;;28.00;71.50;;;;;;4167474;28;20052;-63
2022/01/01 08:13:09;;;;;;;7.30;3.72;;;28.00;71.40;;;;;;4168641;28;20120;-63
2022/01/01 08:15:14;;;;;;;8.77;5.50;;;28.10;71.50;;;;;;4168135;28;20053;-62
2022/01/01 08:17:18;;;;;;;8.05;5.13;;;28.10;71.70;;;;;;4169538;28;20145;-63
2022/01/01 08:19:23;;;;;;;9.65;5.40;;;28.10;71.40;;;;;;4167903;28;20399;-63
2022/01/01 08:21:27;;;;;;;8.68;4.38;;;28.10;71.60;;;;;;4165924;28;20152;-62
2022/01/01 08:23:33;;;;;;;8.32;4.97;;;28.10;71.50;;;;;;4167143;28;20060;-62
2022/01/01 08:25:37;;;;;;;12.05;4.75;;;28.10;71.70;;;;;;4168876;28;20469;-62
2022/01/01 08:27:42;;;;;;;8.77;4.60;;;28.10;71.60;;;;;;4168226;28;20446;-62
2022/01/01 08:29:49;;;;;;;9.02;3.97;;;28.10;71.70;;;;;;4168950;28;20079;-62
2022/01/01 08:31:56;;;;;;;9.68;3.70;;;28.10;71.30;;;;;;4169272;28;20048;-64
2022/01/01 08:34:00;;;;;;;8.18;4.00;;;28.10;71.10;;;;;;4167265;28;20045;-64
2022/01/01 08:36:05;;;;;;;10.10;7.32;;;28.00;71.20;;;;;;4167903;28;20500;-63
2022/01/01 08:38:10;;;;;;;7.63;4.40;;;28.10;71.60;;;;;;4167504;28;20053;-64
2022/01/01 08:40:16;;;;;;;7.90;4.45;;;28.10;71.50;;;;;;4167859;28;20183;-63
2022/01/01 08:42:21;;;;;;;7.20;4.80;;;28.10;71.70;;;;;;4169385;28;20134;-64
2022/01/01 08:44:26;;;;;;;8.80;5.90;;;28.10;71.50;;;;;;4167796;28;20570;-63
2022/01/01 08:46:30;;;;;;;6.95;4.25;;;28.20;72.00;;;;;;4166225;28;20043;-64
2022/01/01 08:48:36;;;;;;;8.00;4.13;;;28.10;71.70;;;;;;4173061;28;20045;-64
2022/01/01 08:50:40;;;;;;;7.75;5.70;;;28.10;71.60;;;;;;4169898;28;20132;-64
2022/01/01 08:52:44;;;;;;;13.95;6.53;;;28.10;71.70;;;;;;4171265;28;20044;-63
2022/01/01 08:54:56;;;;;;;11.00;6.10;;;28.10;71.80;;;;;;4173883;28;20037;-64
2022/01/01 08:57:01;;;;;;;8.38;4.68;;;28.10;71.60;;;;;;4174141;28;20056;-63
2022/01/01 08:59:08;;;;;;;10.52;8.07;;;28.10;71.80;;;;;;4175903;28;20086;-64
2022/01/01 09:01:16;;;;;;;6.53;4.18;;;28.10;71.80;;;;;;4176467;28;20465;-64
2022/01/01 09:03:20;;;;;;;9.30;4.05;;;28.00;71.50;;;;;;4175014;28;20102;-64
2022/01/01 09:05:26;;;;;;;8.98;4.65;;;28.10;71.60;;;;;;4171798;28;20057;-63
2022/01/01 09:07:31;;;;;;;9.73;4.63;;;28.10;71.60;;;;;;4174106;28;20071;-63
2022/01/01 09:09:40;;;;;;;6.43;4.20;;;28.10;71.50;;;;;;4175581;28;20558;-63
2022/01/01 09:11:45;;;;;;;6.78;4.22;;;28.00;72.10;;;;;;4167752;28;20047;-63
2022/01/01 09:13:49;;;;;;;7.03;4.07;;;27.90;71.70;;;;;;4168487;28;20453;-63
2022/01/01 09:15:54;;;;;;;11.00;4.10;;;27.80;71.60;;;;;;4168489;28;20068;-62
2022/01/01 09:17:59;;;;;;;6.57;3.80;;;27.80;71.90;;;;;;4167309;28;20045;-62
2022/01/01 09:20:04;;;;;;;5.53;4.07;;;27.90;72.10;;;;;;4170244;28;20053;-64
2022/01/01 09:22:09;;;;;;;14.60;4.07;;;27.90;72.00;;;;;;4172838;28;20052;-63
2022/01/01 09:24:13;;;;;;;9.75;3.97;;;27.80;72.50;;;;;;4167850;28;20462;-63
2022/01/01 09:26:19;;;;;;;9.77;4.55;;;27.90;71.60;;;;;;4170505;28;20494;-63
2022/01/01 09:28:26;;;;;;;9.40;4.05;;;27.90;71.80;;;;;;4169010;28;20492;-63
2022/01/01 09:30:30;;;;;;;5.85;3.75;;;27.80;72.10;;;;;;4170089;28;20060;-63
2022/01/01 09:32:36;;;;;;;6.82;4.32;;;27.80;72.70;;;;;;4165459;28;20418;-62
2022/01/01 09:34:41;;;;;;;8.02;4.82;;;27.80;72.20;;;;;;4162312;28;20318;-62
2022/01/01 09:36:47;;;;;;;9.93;4.28;;;27.80;72.20;;;;;;4173124;28;20103;-62
2022/01/01 09:38:53;;;;;;;6.97;4.40;;;27.80;72.40;;;;;;4175292;28;20041;-63
2022/01/01 09:40:58;;;;;;;9.73;4.70;;;27.70;72.30;;;;;;4173058;28;20036;-63
2022/01/01 09:43:03;;;;;;;11.23;4.50;;;27.70;72.30;;;;;;4166174;28;20396;-63
2022/01/01 09:45:08;;;;;;;8.05;4.15;;;27.70;72.40;;;;;;4166713;28;20041;-63
2022/01/01 09:47:12;;;;;;;11.60;4.97;;;27.60;72.70;;;;;;4171137;28;20068;-63
2022/01/01 09:49:17;;;;;;;6.20;4.60;;;27.70;72.80;;;;;;4167712;28;20128;-63
2022/01/01 09:51:22;;;;;;;8.93;4.93;;;27.70;73.00;;;;;;4169523;28;20041;-63
2022/01/01 09:53:27;;;;;;;8.55;5.22;;;27.70;72.80;;;;;;4167266;28;20392;-62
2022/01/01 09:55:31;;;;;;;11.43;5.50;;;27.70;72.80;;;;;;4167616;28;20046;-63
2022/01/01 09:57:37;;;;;;;12.10;5.57;;;27.70;72.80;;;;;;4167285;28;20037;-64
2022/01/01 09:59:42;;;;;;;7.90;4.63;;;27.60;72.90;;;;;;4170390;28;20073;-63
2022/01/01 10:01:46;;;;;;;8.00;4.32;;;27.60;72.70;;;;;;4171910;28;20037;-62
2022/01/01 10:03:51;;;;;;;6.88;4.35;;;27.60;72.30;;;;;;4173771;28;20056;-62
2022/01/01 10:06:15;;;;;;;5.88;3.80;;;27.50;72.10;;;;;;4170594;28;20045;-62
2022/01/01 10:08:25;;;;;;;11.07;4.43;;;27.60;72.20;;;;;;4172733;28;20504;-62
2022/01/01 10:10:29;;;;;;;7.20;4.22;;;27.50;71.90;;;;;;4175983;28;20055;-62
2022/01/01 10:12:39;;;;;;;10.88;3.97;;;27.50;72.40;;;;;;4173657;28;20533;-62
2022/01/01 10:14:45;;;;;;;8.63;4.13;;;27.50;72.70;;;;;;4175571;28;20503;-62
2022/01/01 10:16:52;;;;;;;8.85;4.38;;;27.50;72.70;;;;;;4171022;28;20049;-62
2022/01/01 10:18:57;;;;;;;8.25;4.25;;;27.40;72.90;;;;;;4170960;28;20076;-63
2022/01/01 10:21:12;;;;;;;6.70;3.95;;;27.40;72.90;;;;;;4170355;28;20045;-63
2022/01/01 10:23:20;;;;;;;9.90;4.55;;;27.40;72.90;;;;;;4168690;28;20061;-61
2022/01/01 10:27:46;;;;;;;17.58;5.18;;;27.30;73.10;;;;;;4167306;28;20061;-63
2022/01/01 10:29:50;;;;;;;10.15;5.63;;;27.30;73.00;;;;;;4192640;28;20538;-63
2022/01/01 10:31:59;;;;;;;9.68;5.53;;;27.30;73.20;;;;;;4171859;28;20044;-64
2022/01/01 10:34:14;;;;;;;11.25;5.50;;;27.30;73.90;;;;;;4180791;28;20094;-63
2022/01/01 10:36:20;;;;;;;14.27;6.13;;;27.30;73.30;;;;;;4181540;28;20045;-63
2022/01/01 10:38:27;;;;;;;11.80;5.45;;;27.30;73.80;;;;;;4173761;28;20060;-63
2022/01/01 10:40:31;;;;;;;9.02;4.68;;;27.20;73.50;;;;;;4176693;28;20080;-63
2022/01/01 10:42:35;;;;;;;12.43;4.70;;;27.20;73.50;;;;;;4176820;28;20444;-63
2022/01/01 10:44:41;;;;;;;13.20;4.47;;;27.20;73.40;;;;;;4176626;28;20099;-63
2022/01/01 10:46:45;;;;;;;11.10;6.18;;;27.20;73.60;;;;;;4173769;28;20140;-63
2022/01/01 10:48:57;;;;;;;10.60;7.28;;;27.20;73.70;;;;;;4172569;28;20053;-63
2022/01/01 10:51:01;;;;;;;14.10;7.85;;;27.10;73.90;;;;;;4172929;28;20503;-63
2022/01/01 10:53:13;;;;;;;12.27;6.68;;;27.10;74.00;;;;;;4175142;28;20503;-62